sensor_id;sensor_type;location;lat;lon;timestamp;temperature;humidity
74178;DHT22;62540;48.456;-4.456;2023-11-21T00:01:40;12.83;75.32
74178;DHT22;62540;48.456;-4.456;2023-11-21T00:04:05;12.88;74.49
74178;DHT22;62540;48.456;-4.456;2023-11-21T00:06:32;12.86;73.90
74178;DHT22;62540;48.456;-4.456;2023-11-21T00:08:58;12.83;74.00
74178;DHT22;62540;48.456;-4.456;2023-11-21T00:11:23;12.85;73.86
74178;DHT22;62540;48.456;-4.456;2023-11-21T00:13:50;12.83;73.10
74178;DHT22;62540;48.456;-4.456;2023-11-21T00:16:15;12.89;73.84
74178;DHT22;62540;48.456;-4.456;2023-11-21T00:18:41;12.86;74.07
74178;DHT22;62540;48.456;-4.456;2023-11-21T00:21:08;12.86;74.66
74178;DHT22;62540;48.456;-4.456;2023-11-21T00:23:34;12.89;74.67
74178;DHT22;62540;48.456;-4.456;2023-11-21T00:25:59;12.86;74.74
74178;DHT22;62540;48.456;-4.456;2023-11-21T00:28:26;12.86;74.83
74178;DHT22;62540;48.456;-4.456;2023-11-21T00:30:51;12.90;74.75
74178;DHT22;62540;48.456;-4.456;2023-11-21T00:33:17;12.92;74.80
74178;DHT22;62540;48.456;-4.456;2023-11-21T00:35:42;12.92;74.76
74178;DHT22;62540;48.456;-4.456;2023-11-21T00:38:08;12.92;74.92
74178;DHT22;62540;48.456;-4.456;2023-11-21T00:40:35;12.89;74.98
74178;DHT22;62540;48.456;-4.456;2023-11-21T00:43:00;12.90;75.16
74178;DHT22;62540;48.456;-4.456;2023-11-21T00:45:26;12.95;75.27
74178;DHT22;62540;48.456;-4.456;2023-11-21T00:47:51;12.97;75.19
74178;DHT22;62540;48.456;-4.456;2023-11-21T00:50:17;12.97;75.26
74178;DHT22;62540;48.456;-4.456;2023-11-21T00:52:42;13.02;75.25
74178;DHT22;62540;48.456;-4.456;2023-11-21T00:55:08;12.90;75.81
74178;DHT22;62540;48.456;-4.456;2023-11-21T00:57:34;12.85;76.72
74178;DHT22;62540;48.456;-4.456;2023-11-21T01:00:00;12.85;77.00
74178;DHT22;62540;48.456;-4.456;2023-11-21T01:02:26;12.86;77.09
74178;DHT22;62540;48.456;-4.456;2023-11-21T01:04:51;12.78;77.50
74178;DHT22;62540;48.456;-4.456;2023-11-21T01:07:16;12.83;77.15
74178;DHT22;62540;48.456;-4.456;2023-11-21T01:09:45;12.78;76.97
74178;DHT22;62540;48.456;-4.456;2023-11-21T01:12:11;12.78;77.00
74178;DHT22;62540;48.456;-4.456;2023-11-21T01:14:36;12.78;76.71
74178;DHT22;62540;48.456;-4.456;2023-11-21T01:17:02;12.79;76.63
74178;DHT22;62540;48.456;-4.456;2023-11-21T01:19:29;12.78;76.82
74178;DHT22;62540;48.456;-4.456;2023-11-21T01:21:54;12.72;77.43
74178;DHT22;62540;48.456;-4.456;2023-11-21T01:24:19;12.71;77.76
74178;DHT22;62540;48.456;-4.456;2023-11-21T01:26:45;12.71;77.74
74178;DHT22;62540;48.456;-4.456;2023-11-21T01:29:11;12.72;77.92
74178;DHT22;62540;48.456;-4.456;2023-11-21T01:31:37;12.76;77.64
74178;DHT22;62540;48.456;-4.456;2023-11-21T01:34:02;12.79;77.54
74178;DHT22;62540;48.456;-4.456;2023-11-21T01:36:32;12.79;77.33
74178;DHT22;62540;48.456;-4.456;2023-11-21T01:38:57;12.76;77.28
74178;DHT22;62540;48.456;-4.456;2023-11-21T01:41:25;12.75;77.30
74178;DHT22;62540;48.456;-4.456;2023-11-21T01:43:52;12.81;77.25
74178;DHT22;62540;48.456;-4.456;2023-11-21T01:46:19;12.82;77.29
74178;DHT22;62540;48.456;-4.456;2023-11-21T01:48:45;12.81;77.44
74178;DHT22;62540;48.456;-4.456;2023-11-21T01:51:11;12.81;77.41
74178;DHT22;62540;48.456;-4.456;2023-11-21T01:53:37;12.79;77.44
74178;DHT22;62540;48.456;-4.456;2023-11-21T01:56:02;12.79;77.39
74178;DHT22;62540;48.456;-4.456;2023-11-21T01:58:30;12.75;77.45
74178;DHT22;62540;48.456;-4.456;2023-11-21T02:00:56;12.78;77.43
74178;DHT22;62540;48.456;-4.456;2023-11-21T02:03:21;12.78;77.36
74178;DHT22;62540;48.456;-4.456;2023-11-21T02:05:47;12.79;77.37
74178;DHT22;62540;48.456;-4.456;2023-11-21T02:08:12;12.82;77.39
74178;DHT22;62540;48.456;-4.456;2023-11-21T02:10:38;12.81;77.40
74178;DHT22;62540;48.456;-4.456;2023-11-21T02:13:03;12.82;77.59
74178;DHT22;62540;48.456;-4.456;2023-11-21T02:15:29;12.78;78.20
74178;DHT22;62540;48.456;-4.456;2023-11-21T02:17:55;12.72;78.95
74178;DHT22;62540;48.456;-4.456;2023-11-21T02:20:21;12.71;79.10
74178;DHT22;62540;48.456;-4.456;2023-11-21T02:22:57;12.73;78.89
74178;DHT22;62540;48.456;-4.456;2023-11-21T02:25:28;12.78;78.57
74178;DHT22;62540;48.456;-4.456;2023-11-21T02:27:54;12.78;78.29
74178;DHT22;62540;48.456;-4.456;2023-11-21T02:30:21;12.75;78.13
74178;DHT22;62540;48.456;-4.456;2023-11-21T02:32:48;12.81;78.13
74178;DHT22;62540;48.456;-4.456;2023-11-21T02:35:14;12.72;78.06
74178;DHT22;62540;48.456;-4.456;2023-11-21T02:37:39;12.76;77.95
74178;DHT22;62540;48.456;-4.456;2023-11-21T02:40:07;12.66;78.14
74178;DHT22;62540;48.456;-4.456;2023-11-21T02:42:35;12.66;78.25
74178;DHT22;62540;48.456;-4.456;2023-11-21T02:45:00;12.66;78.38
74178;DHT22;62540;48.456;-4.456;2023-11-21T02:47:25;12.71;78.40
74178;DHT22;62540;48.456;-4.456;2023-11-21T02:49:51;12.71;78.19
74178;DHT22;62540;48.456;-4.456;2023-11-21T02:52:17;12.68;78.12
74178;DHT22;62540;48.456;-4.456;2023-11-21T02:54:44;12.66;78.20
74178;DHT22;62540;48.456;-4.456;2023-11-21T02:57:09;12.72;78.01
74178;DHT22;62540;48.456;-4.456;2023-11-21T02:59:35;12.73;77.72
74178;DHT22;62540;48.456;-4.456;2023-11-21T03:02:00;12.71;77.59
74178;DHT22;62540;48.456;-4.456;2023-11-21T03:04:26;12.75;77.64
74178;DHT22;62540;48.456;-4.456;2023-11-21T03:06:51;12.76;77.45
74178;DHT22;62540;48.456;-4.456;2023-11-21T03:09:16;12.82;77.36
74178;DHT22;62540;48.456;-4.456;2023-11-21T03:11:42;12.79;77.15
74178;DHT22;62540;48.456;-4.456;2023-11-21T03:14:07;12.85;77.04
74178;DHT22;62540;48.456;-4.456;2023-11-21T03:16:33;12.82;76.40
74178;DHT22;62540;48.456;-4.456;2023-11-21T03:18:59;12.85;76.58
74178;DHT22;62540;48.456;-4.456;2023-11-21T03:21:24;12.89;76.58
74178;DHT22;62540;48.456;-4.456;2023-11-21T03:23:51;12.92;76.43
74178;DHT22;62540;48.456;-4.456;2023-11-21T03:26:17;12.93;76.11
74178;DHT22;62540;48.456;-4.456;2023-11-21T03:28:43;12.93;76.18
74178;DHT22;62540;48.456;-4.456;2023-11-21T03:31:08;12.93;76.19
74178;DHT22;62540;48.456;-4.456;2023-11-21T03:33:37;12.99;76.32
74178;DHT22;62540;48.456;-4.456;2023-11-21T03:36:02;12.96;76.11
74178;DHT22;62540;48.456;-4.456;2023-11-21T03:38:29;12.97;75.77
74178;DHT22;62540;48.456;-4.456;2023-11-21T03:40:54;12.89;75.81
74178;DHT22;62540;48.456;-4.456;2023-11-21T03:43:19;12.90;76.13
74178;DHT22;62540;48.456;-4.456;2023-11-21T03:45:45;12.93;76.29
74178;DHT22;62540;48.456;-4.456;2023-11-21T03:48:12;12.90;76.39
74178;DHT22;62540;48.456;-4.456;2023-11-21T03:50:38;12.93;76.35
74178;DHT22;62540;48.456;-4.456;2023-11-21T03:53:04;12.93;76.34
74178;DHT22;62540;48.456;-4.456;2023-11-21T03:55:29;12.93;75.91
74178;DHT22;62540;48.456;-4.456;2023-11-21T03:57:56;12.88;75.89
74178;DHT22;62540;48.456;-4.456;2023-11-21T04:00:22;12.86;76.06
74178;DHT22;62540;48.456;-4.456;2023-11-21T04:02:47;12.90;75.86
74178;DHT22;62540;48.456;-4.456;2023-11-21T04:05:13;12.88;75.57
74178;DHT22;62540;48.456;-4.456;2023-11-21T04:07:38;12.89;75.05
74178;DHT22;62540;48.456;-4.456;2023-11-21T04:10:07;12.88;74.31
74178;DHT22;62540;48.456;-4.456;2023-11-21T04:12:38;12.79;74.53
74178;DHT22;62540;48.456;-4.456;2023-11-21T04:15:04;12.83;74.47
74178;DHT22;62540;48.456;-4.456;2023-11-21T04:17:29;12.88;74.99
74178;DHT22;62540;48.456;-4.456;2023-11-21T04:19:54;12.92;74.98
74178;DHT22;62540;48.456;-4.456;2023-11-21T04:22:20;12.93;75.19
74178;DHT22;62540;48.456;-4.456;2023-11-21T04:24:46;12.93;75.08
74178;DHT22;62540;48.456;-4.456;2023-11-21T04:27:11;12.90;74.92
74178;DHT22;62540;48.456;-4.456;2023-11-21T04:29:38;12.90;74.51
74178;DHT22;62540;48.456;-4.456;2023-11-21T04:32:03;12.86;74.42
74178;DHT22;62540;48.456;-4.456;2023-11-21T04:34:29;12.85;74.23
74178;DHT22;62540;48.456;-4.456;2023-11-21T04:36:56;12.89;74.70
74178;DHT22;62540;48.456;-4.456;2023-11-21T04:39:22;12.88;74.52
74178;DHT22;62540;48.456;-4.456;2023-11-21T04:41:47;12.89;74.45
74178;DHT22;62540;48.456;-4.456;2023-11-21T04:44:13;12.93;74.50
74178;DHT22;62540;48.456;-4.456;2023-11-21T04:46:38;12.92;74.20
74178;DHT22;62540;48.456;-4.456;2023-11-21T04:49:03;12.97;74.23
74178;DHT22;62540;48.456;-4.456;2023-11-21T04:51:29;12.93;73.64
74178;DHT22;62540;48.456;-4.456;2023-11-21T04:53:57;12.93;73.64
74178;DHT22;62540;48.456;-4.456;2023-11-21T04:56:22;12.92;73.59
74178;DHT22;62540;48.456;-4.456;2023-11-21T04:58:48;12.95;74.00
74178;DHT22;62540;48.456;-4.456;2023-11-21T05:01:13;12.95;74.25
74178;DHT22;62540;48.456;-4.456;2023-11-21T05:03:39;12.93;74.08
74178;DHT22;62540;48.456;-4.456;2023-11-21T05:06:04;12.88;74.49
74178;DHT22;62540;48.456;-4.456;2023-11-21T05:08:30;12.86;74.84
74178;DHT22;62540;48.456;-4.456;2023-11-21T05:10:56;12.90;74.84
74178;DHT22;62540;48.456;-4.456;2023-11-21T05:13:22;12.82;74.88
74178;DHT22;62540;48.456;-4.456;2023-11-21T05:15:53;12.86;74.84
74178;DHT22;62540;48.456;-4.456;2023-11-21T05:18:18;12.88;74.78
74178;DHT22;62540;48.456;-4.456;2023-11-21T05:20:44;12.86;74.73
74178;DHT22;62540;48.456;-4.456;2023-11-21T05:23:09;12.88;74.70
74178;DHT22;62540;48.456;-4.456;2023-11-21T05:25:34;12.88;74.80
74178;DHT22;62540;48.456;-4.456;2023-11-21T05:28:00;12.85;74.89
74178;DHT22;62540;48.456;-4.456;2023-11-21T05:30:27;12.83;75.14
74178;DHT22;62540;48.456;-4.456;2023-11-21T05:32:53;12.83;75.18
74178;DHT22;62540;48.456;-4.456;2023-11-21T05:35:18;12.82;75.27
74178;DHT22;62540;48.456;-4.456;2023-11-21T05:37:45;12.83;75.25
74178;DHT22;62540;48.456;-4.456;2023-11-21T05:40:11;12.82;75.51
74178;DHT22;62540;48.456;-4.456;2023-11-21T05:42:39;12.82;75.76
74178;DHT22;62540;48.456;-4.456;2023-11-21T05:45:06;12.83;75.79
74178;DHT22;62540;48.456;-4.456;2023-11-21T05:47:40;12.81;76.18
74178;DHT22;62540;48.456;-4.456;2023-11-21T05:50:07;12.78;76.18
74178;DHT22;62540;48.456;-4.456;2023-11-21T05:52:38;12.82;76.31
74178;DHT22;62540;48.456;-4.456;2023-11-21T05:55:05;12.78;77.27
74178;DHT22;62540;48.456;-4.456;2023-11-21T05:57:38;12.69;77.28
74178;DHT22;62540;48.456;-4.456;2023-11-21T06:00:12;12.68;77.31
74178;DHT22;62540;48.456;-4.456;2023-11-21T06:02:43;12.65;77.88
74178;DHT22;62540;48.456;-4.456;2023-11-21T06:05:10;12.62;77.95
74178;DHT22;62540;48.456;-4.456;2023-11-21T06:07:36;12.62;78.08
74178;DHT22;62540;48.456;-4.456;2023-11-21T06:10:03;12.56;78.99
74178;DHT22;62540;48.456;-4.456;2023-11-21T06:12:32;12.53;79.26
74178;DHT22;62540;48.456;-4.456;2023-11-21T06:15:04;12.61;78.86
74178;DHT22;62540;48.456;-4.456;2023-11-21T06:17:31;12.62;78.92
74178;DHT22;62540;48.456;-4.456;2023-11-21T06:19:57;12.63;78.83
74178;DHT22;62540;48.456;-4.456;2023-11-21T06:22:22;12.65;79.58
74178;DHT22;62540;48.456;-4.456;2023-11-21T06:24:47;12.62;79.39
74178;DHT22;62540;48.456;-4.456;2023-11-21T06:27:13;12.56;79.65
74178;DHT22;62540;48.456;-4.456;2023-11-21T06:29:38;12.59;79.56
74178;DHT22;62540;48.456;-4.456;2023-11-21T06:32:04;12.63;79.48
74178;DHT22;62540;48.456;-4.456;2023-11-21T06:34:30;12.65;79.37
74178;DHT22;62540;48.456;-4.456;2023-11-21T06:36:56;12.63;79.56
74178;DHT22;62540;48.456;-4.456;2023-11-21T06:39:21;12.63;79.54
74178;DHT22;62540;48.456;-4.456;2023-11-21T06:41:49;12.66;79.40
74178;DHT22;62540;48.456;-4.456;2023-11-21T06:44:15;12.65;79.57
74178;DHT22;62540;48.456;-4.456;2023-11-21T06:46:40;12.68;79.63
74178;DHT22;62540;48.456;-4.456;2023-11-21T06:49:08;12.66;79.52
74178;DHT22;62540;48.456;-4.456;2023-11-21T06:51:33;12.72;79.15
74178;DHT22;62540;48.456;-4.456;2023-11-21T06:53:58;12.73;79.04
74178;DHT22;62540;48.456;-4.456;2023-11-21T06:56:24;12.69;79.26
74178;DHT22;62540;48.456;-4.456;2023-11-21T06:58:49;12.73;79.04
74178;DHT22;62540;48.456;-4.456;2023-11-21T07:01:19;12.75;79.00
74178;DHT22;62540;48.456;-4.456;2023-11-21T07:03:45;12.73;79.16
74178;DHT22;62540;48.456;-4.456;2023-11-21T07:06:11;12.71;78.93
74178;DHT22;62540;48.456;-4.456;2023-11-21T07:08:36;12.78;78.73
74178;DHT22;62540;48.456;-4.456;2023-11-21T07:11:02;12.81;78.47
74178;DHT22;62540;48.456;-4.456;2023-11-21T07:13:28;12.83;78.53
74178;DHT22;62540;48.456;-4.456;2023-11-21T07:15:54;12.88;78.34
74178;DHT22;62540;48.456;-4.456;2023-11-21T07:18:19;12.89;78.26
74178;DHT22;62540;48.456;-4.456;2023-11-21T07:20:45;12.90;78.32
74178;DHT22;62540;48.456;-4.456;2023-11-21T07:23:10;12.88;78.50
74178;DHT22;62540;48.456;-4.456;2023-11-21T07:25:36;12.88;78.59
74178;DHT22;62540;48.456;-4.456;2023-11-21T07:28:02;12.90;78.50
74178;DHT22;62540;48.456;-4.456;2023-11-21T07:30:27;12.99;78.05
74178;DHT22;62540;48.456;-4.456;2023-11-21T07:32:53;12.96;78.07
74178;DHT22;62540;48.456;-4.456;2023-11-21T07:35:18;12.93;78.14
74178;DHT22;62540;48.456;-4.456;2023-11-21T07:37:44;12.95;78.15
74178;DHT22;62540;48.456;-4.456;2023-11-21T07:40:09;12.99;78.26
74178;DHT22;62540;48.456;-4.456;2023-11-21T07:42:37;12.99;78.30
74178;DHT22;62540;48.456;-4.456;2023-11-21T07:45:04;13.03;78.24
74178;DHT22;62540;48.456;-4.456;2023-11-21T07:47:29;13.06;78.16
74178;DHT22;62540;48.456;-4.456;2023-11-21T07:49:55;13.10;78.18
74178;DHT22;62540;48.456;-4.456;2023-11-21T07:52:22;13.09;78.18
74178;DHT22;62540;48.456;-4.456;2023-11-21T07:54:47;13.07;78.26
74178;DHT22;62540;48.456;-4.456;2023-11-21T07:57:12;13.09;78.35
74178;DHT22;62540;48.456;-4.456;2023-11-21T07:59:39;13.14;78.27
74178;DHT22;62540;48.456;-4.456;2023-11-21T08:02:06;13.16;78.02
74178;DHT22;62540;48.456;-4.456;2023-11-21T08:04:32;13.17;78.02
74178;DHT22;62540;48.456;-4.456;2023-11-21T08:06:57;13.13;78.40
74178;DHT22;62540;48.456;-4.456;2023-11-21T08:09:23;13.11;78.39
74178;DHT22;62540;48.456;-4.456;2023-11-21T08:11:49;13.11;78.19
74178;DHT22;62540;48.456;-4.456;2023-11-21T08:14:15;13.16;78.07
74178;DHT22;62540;48.456;-4.456;2023-11-21T08:16:40;13.17;77.86
74178;DHT22;62540;48.456;-4.456;2023-11-21T08:19:06;13.20;77.83
74178;DHT22;62540;48.456;-4.456;2023-11-21T08:21:31;13.19;77.61
74178;DHT22;62540;48.456;-4.456;2023-11-21T08:23:57;13.17;77.48
74178;DHT22;62540;48.456;-4.456;2023-11-21T08:26:22;13.19;77.66
74178;DHT22;62540;48.456;-4.456;2023-11-21T08:28:48;13.21;77.82
74178;DHT22;62540;48.456;-4.456;2023-11-21T08:31:14;13.20;77.97
74178;DHT22;62540;48.456;-4.456;2023-11-21T08:33:39;13.17;78.32
74178;DHT22;62540;48.456;-4.456;2023-11-21T08:36:09;13.23;77.98
74178;DHT22;62540;48.456;-4.456;2023-11-21T08:38:35;13.23;77.92
74178;DHT22;62540;48.456;-4.456;2023-11-21T08:41:07;13.20;77.84
74178;DHT22;62540;48.456;-4.456;2023-11-21T08:43:36;13.19;77.79
74178;DHT22;62540;48.456;-4.456;2023-11-21T08:46:08;13.14;78.06
74178;DHT22;62540;48.456;-4.456;2023-11-21T08:48:35;13.11;78.38
74178;DHT22;62540;48.456;-4.456;2023-11-21T08:51:01;13.14;78.38
74178;DHT22;62540;48.456;-4.456;2023-11-21T08:53:26;13.13;78.72
74178;DHT22;62540;48.456;-4.456;2023-11-21T08:55:52;13.13;78.79
74178;DHT22;62540;48.456;-4.456;2023-11-21T08:58:19;13.17;78.84
74178;DHT22;62540;48.456;-4.456;2023-11-21T09:00:44;13.20;79.00
74178;DHT22;62540;48.456;-4.456;2023-11-21T09:03:11;13.24;78.85
74178;DHT22;62540;48.456;-4.456;2023-11-21T09:05:40;13.23;79.12
74178;DHT22;62540;48.456;-4.456;2023-11-21T09:08:06;13.27;79.09
74178;DHT22;62540;48.456;-4.456;2023-11-21T09:10:33;13.36;78.74
74178;DHT22;62540;48.456;-4.456;2023-11-21T09:13:01;13.33;79.04
74178;DHT22;62540;48.456;-4.456;2023-11-21T09:15:27;13.34;78.94
74178;DHT22;62540;48.456;-4.456;2023-11-21T09:17:52;13.36;78.95
74178;DHT22;62540;48.456;-4.456;2023-11-21T09:20:18;13.36;78.75
74178;DHT22;62540;48.456;-4.456;2023-11-21T09:22:46;13.37;78.93
74178;DHT22;62540;48.456;-4.456;2023-11-21T09:25:12;13.37;78.58
74178;DHT22;62540;48.456;-4.456;2023-11-21T09:27:37;13.39;78.72
74178;DHT22;62540;48.456;-4.456;2023-11-21T09:30:03;13.39;78.76
74178;DHT22;62540;48.456;-4.456;2023-11-21T09:32:30;13.41;78.39
74178;DHT22;62540;48.456;-4.456;2023-11-21T09:34:56;13.43;78.21
74178;DHT22;62540;48.456;-4.456;2023-11-21T09:37:23;13.40;78.13
74178;DHT22;62540;48.456;-4.456;2023-11-21T09:39:49;13.39;78.26
74178;DHT22;62540;48.456;-4.456;2023-11-21T09:42:33;13.41;78.22
74178;DHT22;62540;48.456;-4.456;2023-11-21T09:47:35;13.44;78.43
74178;DHT22;62540;48.456;-4.456;2023-11-21T09:50:04;13.46;78.36
74178;DHT22;62540;48.456;-4.456;2023-11-21T09:52:41;13.43;78.34
74178;DHT22;62540;48.456;-4.456;2023-11-21T09:55:09;13.41;78.46
74178;DHT22;62540;48.456;-4.456;2023-11-21T09:57:38;13.46;78.01
74178;DHT22;62540;48.456;-4.456;2023-11-21T10:00:04;13.40;78.01
74178;DHT22;62540;48.456;-4.456;2023-11-21T10:02:32;13.39;77.88
74178;DHT22;62540;48.456;-4.456;2023-11-21T10:05:01;13.44;77.63
74178;DHT22;62540;48.456;-4.456;2023-11-21T10:07:28;13.40;77.81
74178;DHT22;62540;48.456;-4.456;2023-11-21T10:09:57;13.44;78.28
74178;DHT22;62540;48.456;-4.456;2023-11-21T10:12:24;13.46;78.39
74178;DHT22;62540;48.456;-4.456;2023-11-21T10:14:52;13.51;78.08
74178;DHT22;62540;48.456;-4.456;2023-11-21T10:17:20;13.58;78.12
74178;DHT22;62540;48.456;-4.456;2023-11-21T10:19:47;13.65;77.85
74178;DHT22;62540;48.456;-4.456;2023-11-21T10:22:14;13.64;77.93
74178;DHT22;62540;48.456;-4.456;2023-11-21T10:24:40;13.68;77.94
74178;DHT22;62540;48.456;-4.456;2023-11-21T10:27:05;13.72;77.63
74178;DHT22;62540;48.456;-4.456;2023-11-21T10:29:31;13.78;77.34
74178;DHT22;62540;48.456;-4.456;2023-11-21T10:32:02;13.82;76.90
74178;DHT22;62540;48.456;-4.456;2023-11-21T10:34:27;13.78;77.40
74178;DHT22;62540;48.456;-4.456;2023-11-21T10:36:53;13.72;77.33
74178;DHT22;62540;48.456;-4.456;2023-11-21T10:39:20;13.68;77.37
74178;DHT22;62540;48.456;-4.456;2023-11-21T10:41:48;13.64;77.31
74178;DHT22;62540;48.456;-4.456;2023-11-21T10:44:15;13.65;77.24
74178;DHT22;62540;48.456;-4.456;2023-11-21T10:46:52;13.62;77.85
74178;DHT22;62540;48.456;-4.456;2023-11-21T10:49:21;13.62;77.74
74178;DHT22;62540;48.456;-4.456;2023-11-21T10:51:46;13.65;77.70
74178;DHT22;62540;48.456;-4.456;2023-11-21T10:54:18;13.68;77.59
74178;DHT22;62540;48.456;-4.456;2023-11-21T10:56:43;13.69;77.63
74178;DHT22;62540;48.456;-4.456;2023-11-21T10:59:10;13.74;77.65
74178;DHT22;62540;48.456;-4.456;2023-11-21T11:01:42;13.79;77.66
74178;DHT22;62540;48.456;-4.456;2023-11-21T11:04:09;13.83;77.56
74178;DHT22;62540;48.456;-4.456;2023-11-21T11:06:46;13.85;77.28
74178;DHT22;62540;48.456;-4.456;2023-11-21T11:09:17;13.85;77.28
74178;DHT22;62540;48.456;-4.456;2023-11-21T11:11:43;13.88;77.40
74178;DHT22;62540;48.456;-4.456;2023-11-21T11:14:12;13.95;77.33
74178;DHT22;62540;48.456;-4.456;2023-11-21T11:16:39;13.95;77.00
74178;DHT22;62540;48.456;-4.456;2023-11-21T11:19:09;13.95;77.10
74178;DHT22;62540;48.456;-4.456;2023-11-21T11:24:44;13.92;76.28
74178;DHT22;62540;48.456;-4.456;2023-11-21T11:27:23;13.88;76.19
74178;DHT22;62540;48.456;-4.456;2023-11-21T11:32:51;13.82;76.05
74178;DHT22;62540;48.456;-4.456;2023-11-21T11:35:36;13.89;76.01
74178;DHT22;62540;48.456;-4.456;2023-11-21T11:38:03;13.86;75.94
74178;DHT22;62540;48.456;-4.456;2023-11-21T11:40:44;13.97;75.57
74178;DHT22;62540;48.456;-4.456;2023-11-21T11:43:10;13.99;75.50
74178;DHT22;62540;48.456;-4.456;2023-11-21T11:45:37;13.99;75.26
74178;DHT22;62540;48.456;-4.456;2023-11-21T11:48:07;14.02;75.09
74178;DHT22;62540;48.456;-4.456;2023-11-21T11:50:32;14.04;75.21
74178;DHT22;62540;48.456;-4.456;2023-11-21T11:53:12;14.02;74.80
74178;DHT22;62540;48.456;-4.456;2023-11-21T11:55:38;14.01;74.87
74178;DHT22;62540;48.456;-4.456;2023-11-21T11:58:06;14.05;74.60
74178;DHT22;62540;48.456;-4.456;2023-11-21T12:02:59;14.09;74.44
74178;DHT22;62540;48.456;-4.456;2023-11-21T12:05:28;14.13;74.22
74178;DHT22;62540;48.456;-4.456;2023-11-21T12:07:55;14.13;73.44
74178;DHT22;62540;48.456;-4.456;2023-11-21T12:10:30;14.12;73.42
74178;DHT22;62540;48.456;-4.456;2023-11-21T12:12:59;14.10;73.50
74178;DHT22;62540;48.456;-4.456;2023-11-21T12:15:25;14.09;73.62
74178;DHT22;62540;48.456;-4.456;2023-11-21T12:17:52;14.13;73.64
74178;DHT22;62540;48.456;-4.456;2023-11-21T12:20:19;14.20;73.42
74178;DHT22;62540;48.456;-4.456;2023-11-21T12:22:47;14.23;73.38
74178;DHT22;62540;48.456;-4.456;2023-11-21T12:27:44;14.30;72.88
74178;DHT22;62540;48.456;-4.456;2023-11-21T12:30:11;14.36;72.86
74178;DHT22;62540;48.456;-4.456;2023-11-21T12:32:43;14.40;72.65
74178;DHT22;62540;48.456;-4.456;2023-11-21T12:35:09;14.37;72.34
74178;DHT22;62540;48.456;-4.456;2023-11-21T12:37:40;14.46;71.71
74178;DHT22;62540;48.456;-4.456;2023-11-21T12:40:08;14.51;72.03
74178;DHT22;62540;48.456;-4.456;2023-11-21T12:42:37;14.51;71.86
74178;DHT22;62540;48.456;-4.456;2023-11-21T12:47:42;14.44;72.13
74178;DHT22;62540;48.456;-4.456;2023-11-21T12:50:08;14.50;72.04
74178;DHT22;62540;48.456;-4.456;2023-11-21T12:52:41;14.68;72.27
74178;DHT22;62540;48.456;-4.456;2023-11-21T12:55:06;14.77;71.10
74178;DHT22;62540;48.456;-4.456;2023-11-21T12:57:34;14.84;71.44
74178;DHT22;62540;48.456;-4.456;2023-11-21T13:00:02;14.85;70.41
74178;DHT22;62540;48.456;-4.456;2023-11-21T13:02:36;14.83;69.57
74178;DHT22;62540;48.456;-4.456;2023-11-21T13:05:03;14.70;69.66
74178;DHT22;62540;48.456;-4.456;2023-11-21T13:07:41;14.61;70.10
74178;DHT22;62540;48.456;-4.456;2023-11-21T13:10:12;14.59;69.82
74178;DHT22;62540;48.456;-4.456;2023-11-21T13:12:43;14.56;69.72
74178;DHT22;62540;48.456;-4.456;2023-11-21T13:15:09;14.59;69.91
74178;DHT22;62540;48.456;-4.456;2023-11-21T13:17:35;14.56;70.24
74178;DHT22;62540;48.456;-4.456;2023-11-21T13:20:00;14.68;70.44
74178;DHT22;62540;48.456;-4.456;2023-11-21T13:22:30;14.89;69.84
74178;DHT22;62540;48.456;-4.456;2023-11-21T13:24:58;15.06;69.73
74178;DHT22;62540;48.456;-4.456;2023-11-21T13:27:24;15.15;69.65
74178;DHT22;62540;48.456;-4.456;2023-11-21T13:29:51;15.19;69.26
74178;DHT22;62540;48.456;-4.456;2023-11-21T13:32:17;15.19;68.19
74178;DHT22;62540;48.456;-4.456;2023-11-21T13:34:46;15.19;67.74
74178;DHT22;62540;48.456;-4.456;2023-11-21T13:37:12;15.19;67.82
74178;DHT22;62540;48.456;-4.456;2023-11-21T13:39:38;15.16;67.52
74178;DHT22;62540;48.456;-4.456;2023-11-21T13:42:09;15.09;67.51
74178;DHT22;62540;48.456;-4.456;2023-11-21T13:44:36;15.04;67.22
74178;DHT22;62540;48.456;-4.456;2023-11-21T13:47:03;14.95;68.01
74178;DHT22;62540;48.456;-4.456;2023-11-21T13:49:30;14.91;66.97
74178;DHT22;62540;48.456;-4.456;2023-11-21T13:52:01;14.77;66.13
74178;DHT22;62540;48.456;-4.456;2023-11-21T13:54:27;14.60;66.85
74178;DHT22;62540;48.456;-4.456;2023-11-21T13:56:53;14.48;67.02
74178;DHT22;62540;48.456;-4.456;2023-11-21T13:59:20;14.40;67.23
74178;DHT22;62540;48.456;-4.456;2023-11-21T14:01:51;14.26;67.04
74178;DHT22;62540;48.456;-4.456;2023-11-21T14:04:39;14.12;67.18
74178;DHT22;62540;48.456;-4.456;2023-11-21T14:07:15;14.09;68.05
74178;DHT22;62540;48.456;-4.456;2023-11-21T14:10:10;14.05;68.20
74178;DHT22;62540;48.456;-4.456;2023-11-21T14:12:39;14.09;67.50
74178;DHT22;62540;48.456;-4.456;2023-11-21T14:15:08;14.02;67.60
74178;DHT22;62540;48.456;-4.456;2023-11-21T14:17:35;13.95;67.36
74178;DHT22;62540;48.456;-4.456;2023-11-21T14:20:03;13.97;67.81
74178;DHT22;62540;48.456;-4.456;2023-11-21T14:22:30;13.94;67.83
74178;DHT22;62540;48.456;-4.456;2023-11-21T14:24:56;13.92;67.80
74178;DHT22;62540;48.456;-4.456;2023-11-21T14:27:25;13.92;68.29
74178;DHT22;62540;48.456;-4.456;2023-11-21T14:29:50;13.97;68.02
74178;DHT22;62540;48.456;-4.456;2023-11-21T14:32:16;13.95;67.66
74178;DHT22;62540;48.456;-4.456;2023-11-21T14:34:42;13.99;67.48
74178;DHT22;62540;48.456;-4.456;2023-11-21T14:37:11;13.90;67.22
74178;DHT22;62540;48.456;-4.456;2023-11-21T14:39:39;13.86;67.41
74178;DHT22;62540;48.456;-4.456;2023-11-21T14:42:09;13.82;67.79
74178;DHT22;62540;48.456;-4.456;2023-11-21T14:44:35;13.79;67.85
74178;DHT22;62540;48.456;-4.456;2023-11-21T14:47:04;13.81;68.49
74178;DHT22;62540;48.456;-4.456;2023-11-21T14:49:34;13.83;68.53
74178;DHT22;62540;48.456;-4.456;2023-11-21T14:52:17;13.81;68.02
74178;DHT22;62540;48.456;-4.456;2023-11-21T14:54:56;13.81;68.59
74178;DHT22;62540;48.456;-4.456;2023-11-21T14:57:41;13.83;68.35
74178;DHT22;62540;48.456;-4.456;2023-11-21T15:00:08;13.81;68.58
74178;DHT22;62540;48.456;-4.456;2023-11-21T15:02:54;13.82;68.69
74178;DHT22;62540;48.456;-4.456;2023-11-21T15:05:19;13.77;68.63
74178;DHT22;62540;48.456;-4.456;2023-11-21T15:07:45;13.75;68.81
74178;DHT22;62540;48.456;-4.456;2023-11-21T15:10:11;13.69;69.07
74178;DHT22;62540;48.456;-4.456;2023-11-21T15:12:40;13.69;69.13
74178;DHT22;62540;48.456;-4.456;2023-11-21T15:15:06;13.69;69.13
74178;DHT22;62540;48.456;-4.456;2023-11-21T15:17:35;13.68;69.14
74178;DHT22;62540;48.456;-4.456;2023-11-21T15:20:02;13.68;68.35
74178;DHT22;62540;48.456;-4.456;2023-11-21T15:22:28;13.61;68.72
74178;DHT22;62540;48.456;-4.456;2023-11-21T15:24:54;13.53;69.08
74178;DHT22;62540;48.456;-4.456;2023-11-21T15:27:19;13.53;69.21
74178;DHT22;62540;48.456;-4.456;2023-11-21T15:29:45;13.48;69.23
74178;DHT22;62540;48.456;-4.456;2023-11-21T15:32:11;13.50;68.95